Ever Decent — 9V7952 — position and weather

sailwx.info

Track history (hours):
 
Tides and Currents Weather Stations Pressure Air Temp Water Temp Dewpoint Dewpoint Depression Visibility Wind Speed Wind Dir Waves Ship Positions

Ever Decent

Last reported at 2014-Dec-12 12:29 UTC. Time now 2014-Dec-18 14:27 UTC.
Position N 39°34' W 073°51'.

Length 294 m; draft 12.3 m.

Type: Cargo ship. MMSI: 564904000.

Date/timePositionNaut miles runAvg speedWind from/ knotsBaromVisibWave heightAir tempDewpointWater temp
2014-Dec-12 12:29N 39°34' W 073°51'1718.4
2014-Dec-12 11:33N 39°51' W 073°51'3013.0
2014-Dec-12 09:16N 40°21' W 073°49'7 9.3
2014-Dec-12 08:34N 40°27' W 073°51'1110.9
2014-Dec-12 07:33N 40°34' W 074°02'7 7.0
2014-Dec-12 06:34N 40°39' W 074°09'2 2.2
2014-Dec-12 05:33N 40°41' W 074°09'0 0.0
2014-Dec-12 04:27N 40°41' W 074°09'0 0.0
2014-Dec-12 03:33N 40°41' W 074°09'0 0.0
2014-Dec-12 02:18N 40°41' W 074°09'0 0.0
2014-Dec-12 01:33N 40°41' W 074°09'0 0.0
2014-Dec-12 00:33N 40°41' W 074°09'0 0.0
2014-Dec-11 23:30N 40°41' W 074°09'0 0.0
2014-Dec-11 22:33N 40°41' W 074°09'0 0.0
2014-Dec-11 21:30N 40°41' W 074°09'0 0.0
2014-Dec-11 20:31N 40°41' W 074°09'0 0.0
2014-Dec-11 19:32N 40°41' W 074°09'0 0.0
2014-Dec-11 18:29N 40°41' W 074°09'0 0.0
2014-Dec-11 17:32N 40°41' W 074°09'0 0.0
2014-Dec-11 16:32N 40°41' W 074°09'0 0.0
2014-Dec-11 15:32N 40°41' W 074°09'0 0.0
2014-Dec-11 14:32N 40°41' W 074°09'0 0.0
2014-Dec-11 13:26N 40°41' W 074°09'1 0.9
2014-Dec-11 12:33N 40°40' W 074°08'4 3.5
2014-Dec-11 11:33N 40°39' W 074°04'2 1.7
2014-Dec-11 10:33N 40°37' W 074°03'8 8.3
2014-Dec-11 09:33N 40°30' W 073°57'9 8.6
2014-Dec-11 08:33N 40°25' W 073°48'3310.5
2014-Dec-11 05:22N 39°52' W 073°43'1113.3
2014-Dec-11 04:33N 39°42' W 073°43'1312.9
2014-Dec-11 03:31N 39°28' W 073°44'  
2014-Dec-08 22:09N 38°02' W 076°13'4917.4
2014-Dec-08 19:20N 38°50' W 076°24'1215.1
2014-Dec-08 18:33N 39°02' W 076°23'1211.5
2014-Dec-08 17:33N 39°12' W 076°30'4 4.3
2014-Dec-08 16:33N 39°15' W 076°33'0 0.0
2014-Dec-08 15:33N 39°15' W 076°33'0 0.0
2014-Dec-08 14:33N 39°15' W 076°33'0 0.0
2014-Dec-08 13:33N 39°15' W 076°33'0 0.0
2014-Dec-08 12:33N 39°15' W 076°33'0 0.0
2014-Dec-08 11:33N 39°15' W 076°33'0 0.0
2014-Dec-08 10:34N 39°15' W 076°33'0 0.0
2014-Dec-08 09:33N 39°15' W 076°33'0 0.0
2014-Dec-08 08:33N 39°15' W 076°33'0 0.0
2014-Dec-08 07:33N 39°15' W 076°33'0 0.0
2014-Dec-08 06:33N 39°15' W 076°33'0 0.0
2014-Dec-08 05:33N 39°15' W 076°33'0 0.0
2014-Dec-08 04:34N 39°15' W 076°33'0 0.0
2014-Dec-08 03:33N 39°15' W 076°33'0 0.0
2014-Dec-08 02:34N 39°15' W 076°33'0 0.0
2014-Dec-08 01:34N 39°15' W 076°33'0 0.0
2014-Dec-08 00:33N 39°15' W 076°33'0 0.0
2014-Dec-07 23:33N 39°15' W 076°33'0 0.4
2014-Dec-07 22:34N 39°15' W 076°33'6 6.5
2014-Dec-07 21:33N 39°11' W 076°26'1212.5
2014-Dec-07 20:34N 38°58' W 076°23'4618.6
2014-Dec-07 18:06N 38°13' W 076°15'1018.5
2014-Dec-07 17:33N 38°03' W 076°13'22214.7
2014-Dec-07 02:25N 34°22' W 075°43'1719.4
2014-Dec-07 01:33N 34°10' W 075°56'2121.4
2014-Dec-07 00:33N 33°55' W 076°15'2720.1
2014-Dec-06 23:13N 33°38' W 076°40'1318.8
2014-Dec-06 22:31N 33°32' W 076°54'  
Track history (hours):
 
Tides and Currents Weather Stations Pressure Air Temp Water Temp Dewpoint Dewpoint Depression Visibility Wind Speed Wind Dir Waves Ship Positions

Ever Decent

Last reported at 2014-Dec-12 12:29 UTC. Time now 2014-Dec-18 14:27 UTC.
Position N 39°34' W 073°51'.

Length 294 m; draft 12.3 m.

Type: Cargo ship. MMSI: 564904000.

Date/timePositionNaut miles runAvg speedWind from/ knotsBaromVisibWave heightAir tempDewpointWater temp
2014-Dec-12 12:29N 39°34' W 073°51'1718.4
2014-Dec-12 11:33N 39°51' W 073°51'3013.0
2014-Dec-12 09:16N 40°21' W 073°49'7 9.3
2014-Dec-12 08:34N 40°27' W 073°51'1110.9
2014-Dec-12 07:33N 40°34' W 074°02'7 7.0
2014-Dec-12 06:34N 40°39' W 074°09'2 2.2
2014-Dec-12 05:33N 40°41' W 074°09'0 0.0
2014-Dec-12 04:27N 40°41' W 074°09'0 0.0
2014-Dec-12 03:33N 40°41' W 074°09'0 0.0
2014-Dec-12 02:18N 40°41' W 074°09'0 0.0
2014-Dec-12 01:33N 40°41' W 074°09'0 0.0
2014-Dec-12 00:33N 40°41' W 074°09'0 0.0
2014-Dec-11 23:30N 40°41' W 074°09'0 0.0
2014-Dec-11 22:33N 40°41' W 074°09'0 0.0
2014-Dec-11 21:30N 40°41' W 074°09'0 0.0
2014-Dec-11 20:31N 40°41' W 074°09'0 0.0
2014-Dec-11 19:32N 40°41' W 074°09'0 0.0
2014-Dec-11 18:29N 40°41' W 074°09'0 0.0
2014-Dec-11 17:32N 40°41' W 074°09'0 0.0
2014-Dec-11 16:32N 40°41' W 074°09'0 0.0
2014-Dec-11 15:32N 40°41' W 074°09'0 0.0
2014-Dec-11 14:32N 40°41' W 074°09'0 0.0
2014-Dec-11 13:26N 40°41' W 074°09'1 0.9
2014-Dec-11 12:33N 40°40' W 074°08'4 3.5
2014-Dec-11 11:33N 40°39' W 074°04'2 1.7
2014-Dec-11 10:33N 40°37' W 074°03'8 8.3
2014-Dec-11 09:33N 40°30' W 073°57'9 8.6
2014-Dec-11 08:33N 40°25' W 073°48'3310.5
2014-Dec-11 05:22N 39°52' W 073°43'1113.3
2014-Dec-11 04:33N 39°42' W 073°43'1312.9
2014-Dec-11 03:31N 39°28' W 073°44'  
2014-Dec-08 22:09N 38°02' W 076°13'4917.4
2014-Dec-08 19:20N 38°50' W 076°24'1215.1
2014-Dec-08 18:33N 39°02' W 076°23'1211.5
2014-Dec-08 17:33N 39°12' W 076°30'4 4.3
2014-Dec-08 16:33N 39°15' W 076°33'0 0.0
2014-Dec-08 15:33N 39°15' W 076°33'0 0.0
2014-Dec-08 14:33N 39°15' W 076°33'0 0.0
2014-Dec-08 13:33N 39°15' W 076°33'0 0.0
2014-Dec-08 12:33N 39°15' W 076°33'0 0.0
2014-Dec-08 11:33N 39°15' W 076°33'0 0.0
2014-Dec-08 10:34N 39°15' W 076°33'0 0.0
2014-Dec-08 09:33N 39°15' W 076°33'0 0.0
2014-Dec-08 08:33N 39°15' W 076°33'0 0.0
2014-Dec-08 07:33N 39°15' W 076°33'0 0.0
2014-Dec-08 06:33N 39°15' W 076°33'0 0.0
2014-Dec-08 05:33N 39°15' W 076°33'0 0.0
2014-Dec-08 04:34N 39°15' W 076°33'0 0.0
2014-Dec-08 03:33N 39°15' W 076°33'0 0.0
2014-Dec-08 02:34N 39°15' W 076°33'0 0.0
2014-Dec-08 01:34N 39°15' W 076°33'0 0.0
2014-Dec-08 00:33N 39°15' W 076°33'0 0.0
2014-Dec-07 23:33N 39°15' W 076°33'0 0.4
2014-Dec-07 22:34N 39°15' W 076°33'6 6.5
2014-Dec-07 21:33N 39°11' W 076°26'1212.5
2014-Dec-07 20:34N 38°58' W 076°23'4618.6
2014-Dec-07 18:06N 38°13' W 076°15'1018.5
2014-Dec-07 17:33N 38°03' W 076°13'22214.7
2014-Dec-07 02:25N 34°22' W 075°43'1719.4
2014-Dec-07 01:33N 34°10' W 075°56'2121.4
2014-Dec-07 00:33N 33°55' W 076°15'2720.1
2014-Dec-06 23:13N 33°38' W 076°40'1318.8
2014-Dec-06 22:31N 33°32' W 076°54'  

Dump ship's entire track history